createdAt,value
2019-04-23T00:01:02.999Z,88.80
2019-04-23T00:03:18.746Z,88.80
2019-04-23T00:05:54.930Z,89.20
2019-04-23T00:08:29.185Z,91.20
2019-04-23T00:10:59.910Z,91.50
2019-04-23T00:13:30.512Z,91.80
2019-04-23T00:16:03.176Z,92.10
2019-04-23T00:18:36.817Z,92.40
2019-04-23T00:21:23.568Z,93.00
2019-04-23T00:24:07.539Z,93.20
2019-04-23T00:26:31.884Z,93.90
2019-04-23T00:29:00.551Z,94.20
2019-04-23T00:31:27.503Z,94.50
2019-04-23T00:33:59.125Z,95.20
2019-04-23T00:36:32.455Z,96.30
2019-04-23T00:38:55.796Z,97.10
2019-04-23T00:41:31.184Z,96.90
2019-04-23T00:46:28.906Z,97.60
2019-04-23T00:49:06.127Z,99.40
2019-04-23T00:51:32.880Z,99.50
2019-04-23T00:54:02.241Z,99.90
2019-04-23T00:56:38.589Z,99.90
2019-04-23T00:59:00.397Z,99.90
2019-04-23T01:01:41.217Z,99.90
2019-04-23T01:04:07.150Z,99.90
2019-04-23T01:06:32.457Z,99.90
2019-04-23T01:09:03.268Z,99.90
2019-04-23T01:11:32.073Z,99.90
2019-04-23T01:14:06.691Z,99.90
2019-04-23T01:16:32.945Z,99.90
2019-04-23T01:18:58.072Z,99.90
2019-04-23T01:21:30.604Z,99.90
2019-04-23T01:24:19.079Z,99.90
2019-04-23T01:27:39.013Z,99.90
2019-04-23T01:30:05.079Z,99.90
2019-04-23T01:32:32.099Z,99.90
2019-04-23T01:37:33.139Z,99.90
2019-04-23T01:40:09.715Z,99.90
2019-04-23T01:42:42.834Z,99.90
2019-04-23T01:45:07.248Z,99.90
2019-04-23T01:47:30.394Z,99.90
2019-04-23T01:50:09.683Z,99.90
2019-04-23T01:52:39.861Z,99.90
2019-04-23T01:55:10.235Z,99.90
2019-04-23T01:57:37.538Z,99.90
2019-04-23T02:00:14.322Z,99.90
2019-04-23T02:02:43.101Z,99.90
2019-04-23T02:05:09.391Z,99.90
2019-04-23T02:07:45.658Z,99.90
2019-04-23T02:10:31.193Z,99.90
2019-04-23T02:12:42.084Z,99.90
2019-04-23T02:15:11.485Z,99.90
2019-04-23T02:17:41.151Z,99.90
2019-04-23T02:22:51.798Z,99.90
2019-04-23T02:25:34.503Z,99.90
2019-04-23T02:27:59.348Z,99.90
2019-04-23T02:35:46.826Z,99.90
2019-04-23T02:38:10.058Z,99.90
2019-04-23T02:40:37.386Z,99.90
2019-04-23T02:43:09.432Z,99.90
2019-04-23T02:48:11.064Z,99.90
2019-04-23T02:53:07.849Z,99.90
2019-04-23T02:58:11.099Z,99.90
2019-04-23T03:03:06.020Z,99.90
2019-04-23T03:05:36.436Z,99.90
2019-04-23T03:07:59.927Z,99.90
2019-04-23T03:10:41.288Z,99.90
2019-04-23T03:13:16.091Z,99.90
2019-04-23T03:23:47.148Z,99.90
2019-04-23T03:26:13.754Z,99.90
2019-04-23T03:33:08.271Z,99.90
2019-04-23T03:41:14.781Z,99.90
2019-04-23T03:43:48.992Z,99.90
2019-04-23T03:46:23.617Z,99.90
2019-04-23T03:51:11.437Z,99.90
2019-04-23T03:58:42.571Z,99.90
2019-04-23T04:06:31.075Z,99.90
2019-04-23T04:08:54.610Z,99.90
2019-04-23T04:13:55.855Z,99.90
2019-04-23T04:16:11.650Z,99.90
2019-04-23T04:21:27.946Z,99.90
2019-04-23T04:29:01.336Z,99.90
2019-04-23T04:31:16.236Z,99.90
2019-04-23T04:34:07.430Z,99.90
2019-04-23T04:38:46.749Z,99.90
2019-04-23T04:41:15.883Z,99.90
2019-04-23T04:43:50.777Z,99.90
2019-04-23T04:46:27.987Z,99.90
2019-04-23T04:54:09.334Z,99.90
2019-04-23T04:56:35.960Z,99.90
2019-04-23T05:04:16.764Z,99.90
2019-04-23T05:06:46.588Z,99.90
2019-04-23T05:09:16.757Z,99.90
2019-04-23T05:16:33.460Z,99.90
2019-04-23T05:19:19.797Z,99.90
2019-04-23T05:21:46.679Z,99.90
2019-04-23T05:24:53.693Z,99.90
2019-04-23T05:26:44.517Z,99.90
2019-04-23T05:31:32.848Z,99.90
2019-04-23T05:34:12.596Z,99.90
2019-04-23T05:39:17.533Z,99.90
2019-04-23T05:44:15.463Z,99.90
2019-04-23T05:49:11.092Z,99.90
2019-04-23T05:51:50.867Z,99.90
2019-04-23T05:54:12.541Z,99.90
2019-04-23T05:59:14.668Z,99.90
2019-04-23T06:04:22.873Z,99.90
2019-04-23T06:07:06.058Z,99.90
2019-04-23T06:11:52.557Z,99.90
2019-04-23T06:14:19.018Z,99.90
2019-04-23T06:16:50.684Z,99.90
2019-04-23T06:19:16.908Z,99.90
2019-04-23T06:22:00.401Z,99.90
2019-04-23T06:24:35.066Z,99.90
2019-04-23T06:26:54.237Z,99.90
2019-04-23T06:29:25.475Z,99.90
2019-04-23T06:34:31.116Z,99.90
2019-04-23T06:36:51.441Z,99.90
2019-04-23T06:39:34.480Z,99.90
2019-04-23T06:41:55.041Z,99.90
2019-04-23T06:44:32.753Z,99.90
2019-04-23T06:47:12.922Z,99.90
2019-04-23T06:49:37.707Z,99.90
2019-04-23T06:52:14.950Z,99.90
2019-04-23T06:59:39.098Z,99.90
2019-04-23T07:04:41.043Z,99.90
2019-04-23T07:09:37.270Z,99.90
2019-04-23T07:12:09.079Z,99.90
2019-04-23T07:14:47.679Z,99.90
2019-04-23T07:17:08.674Z,99.90
2019-04-23T07:19:42.374Z,99.90
2019-04-23T07:27:14.894Z,99.90
2019-04-23T07:29:50.099Z,99.90
2019-04-23T07:32:11.620Z,99.90
2019-04-23T07:34:50.930Z,99.90
2019-04-23T07:37:18.999Z,99.90
2019-04-23T07:40:11.313Z,99.90
2019-04-23T07:45:02.096Z,99.90
2019-04-23T07:47:43.533Z,99.90
2019-04-23T07:52:51.344Z,99.90
2019-04-23T07:55:22.060Z,99.90
2019-04-23T07:57:53.594Z,99.90
2019-04-23T08:00:18.158Z,99.90
2019-04-23T08:02:44.091Z,99.90
2019-04-23T08:05:25.113Z,99.90
2019-04-23T08:07:52.479Z,99.90
2019-04-23T08:10:22.801Z,99.90
2019-04-23T08:12:50.592Z,99.90
2019-04-23T08:15:24.943Z,99.90
2019-04-23T08:17:50.514Z,99.90
2019-04-23T08:20:22.764Z,99.90
2019-04-23T08:22:57.129Z,99.90
2019-04-23T08:25:32.008Z,99.90
2019-04-23T08:27:56.004Z,99.90
2019-04-23T08:30:26.462Z,99.90
2019-04-23T08:32:58.298Z,99.90
2019-04-23T08:35:19.466Z,99.90
2019-04-23T08:38:22.888Z,98.90
2019-04-23T08:40:30.850Z,99.40
2019-04-23T08:43:09.063Z,98.60
2019-04-23T08:48:22.978Z,97.60
2019-04-23T08:50:50.697Z,99.20
2019-04-23T08:53:30.874Z,97.50
2019-04-23T08:58:19.056Z,98.00
2019-04-23T09:00:52.097Z,95.80
2019-04-23T09:05:55.891Z,94.50
2019-04-23T09:08:33.174Z,92.40
2019-04-23T09:10:56.819Z,93.90
2019-04-23T09:15:49.872Z,92.50
2019-04-23T09:18:22.562Z,93.00
2019-04-23T09:20:53.031Z,92.20
2019-04-23T09:23:30.411Z,93.50
2019-04-23T09:25:55.948Z,91.10
2019-04-23T09:28:34.569Z,91.70
2019-04-23T09:31:03.983Z,90.90
2019-04-23T09:33:39.444Z,92.30
2019-04-23T09:36:09.793Z,91.00
2019-04-23T09:38:46.866Z,88.50
2019-04-23T09:43:57.792Z,89.90
2019-04-23T09:46:23.597Z,88.20
2019-04-23T09:48:58.244Z,87.80
2019-04-23T09:53:59.447Z,87.40
2019-04-23T09:56:32.718Z,90.00
2019-04-23T09:59:07.465Z,87.70
2019-04-23T10:03:48.736Z,80.60
2019-04-23T10:06:16.106Z,82.70
2019-04-23T10:08:44.949Z,83.30
2019-04-23T10:11:09.575Z,80.80
2019-04-23T10:13:38.685Z,82.30
2019-04-23T10:16:11.642Z,83.60
2019-04-23T10:18:39.348Z,78.90
2019-04-23T10:21:08.403Z,79.20
2019-04-23T10:23:37.244Z,79.70
2019-04-23T10:26:07.854Z,78.30
2019-04-23T10:28:40.109Z,79.30
2019-04-23T10:31:09.605Z,79.20
2019-04-23T10:33:39.825Z,80.70
2019-04-23T10:36:11.673Z,78.40
2019-04-23T10:38:41.614Z,76.20
2019-04-23T10:41:10.196Z,73.40
2019-04-23T10:43:42.159Z,73.10
2019-04-23T10:46:48.936Z,72.20
2019-04-23T10:49:53.324Z,73.40
2019-04-23T10:57:16.626Z,71.40
2019-04-23T10:59:44.988Z,72.00
2019-04-23T11:02:36.451Z,70.80
2019-04-23T11:09:55.826Z,69.40
2019-04-23T11:15:32.240Z,67.00
2019-04-23T11:17:45.610Z,68.20
2019-04-23T11:22:48.281Z,68.40
2019-04-23T11:25:33.031Z,66.10
2019-04-23T11:35:47.776Z,62.20
2019-04-23T11:40:42.020Z,62.10
2019-04-23T11:43:29.282Z,61.20
2019-04-23T11:46:07.982Z,59.30
2019-04-23T11:48:46.623Z,62.50
2019-04-23T11:51:38.854Z,62.80
2019-04-23T11:53:52.880Z,62.20
2019-04-23T11:58:42.727Z,62.90
2019-04-23T12:01:40.768Z,63.50
2019-04-23T12:04:23.012Z,63.50
2019-04-23T12:06:42.026Z,62.60
2019-04-23T12:09:25.908Z,60.30
2019-04-23T12:14:40.458Z,63.40
2019-04-23T12:17:20.903Z,63.50
2019-04-23T12:19:52.064Z,64.30
2019-04-23T12:22:10.790Z,64.10
2019-04-23T12:24:58.191Z,64.90
2019-04-23T12:30:14.616Z,65.60
2019-04-23T12:37:34.638Z,65.90
2019-04-23T12:40:12.899Z,66.90
2019-04-23T12:47:53.629Z,68.90
2019-04-23T12:52:47.240Z,69.60
2019-04-23T12:57:49.016Z,69.60
2019-04-23T13:00:22.452Z,69.90
2019-04-23T13:03:06.325Z,68.00
2019-04-23T13:05:26.651Z,68.60
2019-04-23T13:08:23.379Z,68.40
2019-04-23T13:13:09.293Z,68.70
2019-04-23T13:15:30.513Z,68.20
2019-04-23T13:18:19.601Z,67.10
2019-04-23T13:20:31.893Z,66.50
2019-04-23T13:23:11.812Z,64.80
2019-04-23T13:25:55.501Z,66.50
2019-04-23T13:28:21.769Z,65.50
2019-04-23T13:33:31.984Z,65.30
2019-04-23T13:38:27.560Z,65.60
2019-04-23T13:40:57.202Z,65.50
2019-04-23T13:43:36.382Z,65.40
2019-04-23T13:48:15.172Z,65.20
2019-04-23T13:50:59.211Z,67.10
2019-04-23T13:53:34.377Z,66.40
2019-04-23T13:55:52.510Z,65.10
2019-04-23T14:01:18.199Z,67.80
2019-04-23T14:03:36.092Z,67.30
2019-04-23T14:06:10.882Z,66.40
2019-04-23T14:11:03.433Z,66.70
2019-04-23T14:18:51.541Z,67.00
2019-04-23T14:21:14.262Z,66.10
2019-04-23T14:23:59.137Z,67.00
2019-04-23T14:26:15.898Z,67.20
2019-04-23T14:28:41.841Z,68.30
2019-04-23T14:31:13.118Z,67.20
2019-04-23T14:33:51.232Z,67.80
2019-04-23T14:36:14.063Z,67.30
2019-04-23T14:38:43.926Z,66.60
2019-04-23T14:41:18.056Z,67.90
2019-04-23T14:43:49.821Z,68.80
2019-04-23T14:51:24.082Z,67.10
2019-04-23T14:58:57.995Z,66.10
2019-04-23T15:01:27.485Z,67.90
2019-04-23T15:06:31.581Z,66.40
2019-04-23T15:08:58.610Z,65.90
2019-04-23T15:11:27.109Z,65.80
2019-04-23T15:13:58.479Z,66.60
2019-04-23T15:19:23.721Z,67.30
2019-04-23T15:24:23.174Z,67.50
2019-04-23T15:29:01.140Z,68.60
2019-04-23T15:31:51.473Z,69.40
2019-04-23T15:34:17.764Z,70.90
2019-04-23T15:44:14.793Z,72.40
2019-04-23T15:46:49.114Z,72.60
2019-04-23T15:51:57.925Z,73.40
2019-04-23T15:56:54.709Z,74.70
2019-04-23T15:59:27.556Z,75.70
2019-04-23T16:01:43.381Z,76.90
2019-04-23T16:03:55.861Z,78.90
2019-04-23T16:06:28.478Z,79.80
2019-04-23T16:09:15.746Z,80.80
2019-04-23T16:11:58.092Z,82.50
2019-04-23T16:14:31.239Z,83.90
2019-04-23T16:19:45.791Z,87.40
2019-04-23T16:24:48.429Z,90.10
2019-04-23T16:27:11.106Z,90.00
2019-04-23T16:30:10.827Z,91.00
2019-04-23T16:32:30.957Z,92.10
2019-04-23T16:34:48.897Z,92.90
2019-04-23T16:37:24.862Z,93.50
2019-04-23T16:39:57.524Z,94.50
2019-04-23T16:42:26.730Z,95.90
2019-04-23T16:47:23.985Z,98.00
2019-04-23T16:50:04.972Z,99.00
2019-04-23T16:52:27.844Z,99.90
2019-04-23T16:57:35.983Z,99.90
2019-04-23T17:00:17.135Z,99.90
2019-04-23T17:02:24.434Z,99.90
2019-04-23T17:05:04.757Z,99.90
2019-04-23T17:07:19.736Z,99.90
2019-04-23T17:10:11.590Z,99.90
2019-04-23T17:12:16.676Z,99.90
2019-04-23T17:15:03.213Z,99.90
2019-04-23T17:17:25.181Z,99.90
2019-04-23T17:19:59.414Z,99.90
2019-04-23T17:22:30.090Z,99.90
2019-04-23T17:25:06.603Z,99.90
2019-04-23T17:27:41.641Z,99.90
2019-04-23T17:30:06.764Z,99.90
2019-04-23T17:32:28.283Z,99.90
2019-04-23T17:35:17.395Z,99.90
2019-04-23T17:37:38.112Z,99.90
2019-04-23T17:42:44.006Z,99.90
2019-04-23T17:45:30.855Z,99.90
2019-04-23T17:48:13.490Z,99.90
2019-04-23T17:56:01.081Z,99.90
2019-04-23T17:58:28.501Z,99.90
2019-04-23T18:01:07.342Z,99.90
2019-04-23T18:03:23.444Z,99.90
2019-04-23T18:06:14.293Z,99.90
2019-04-23T18:08:27.208Z,99.90
2019-04-23T18:11:05.999Z,99.90
2019-04-23T18:13:28.204Z,99.90
2019-04-23T18:16:04.128Z,99.90
2019-04-23T18:18:40.731Z,99.90
2019-04-23T18:21:21.442Z,99.90
2019-04-23T18:24:13.514Z,99.90
2019-04-23T18:26:42.626Z,99.90
2019-04-23T18:29:18.904Z,99.90
2019-04-23T18:31:38.274Z,99.90
2019-04-23T18:36:39.655Z,99.90
2019-04-23T18:39:12.112Z,99.90
2019-04-23T18:41:43.333Z,99.90
2019-04-23T18:46:54.136Z,99.90
2019-04-23T18:49:21.499Z,99.90
2019-04-23T18:51:51.341Z,99.90
2019-04-23T18:54:14.443Z,99.90
2019-04-23T18:57:05.805Z,99.90
2019-04-23T18:59:39.294Z,99.90
2019-04-23T19:02:05.153Z,99.90
2019-04-23T19:04:50.997Z,99.90
2019-04-23T19:07:32.022Z,99.90
2019-04-23T19:12:44.385Z,99.90
2019-04-23T19:15:13.963Z,99.90
2019-04-23T19:20:16.170Z,99.90
2019-04-23T19:22:46.871Z,99.90
2019-04-23T19:25:16.331Z,99.90
2019-04-23T19:27:45.875Z,99.90
2019-04-23T19:30:37.039Z,99.90
2019-04-23T19:33:14.425Z,99.90
2019-04-23T19:38:11.128Z,99.90
2019-04-23T19:40:53.564Z,99.90
2019-04-23T19:43:19.921Z,99.90
2019-04-23T19:45:55.684Z,99.90
2019-04-23T19:53:29.728Z,99.90
2019-04-23T19:56:04.479Z,99.90
2019-04-23T19:58:31.069Z,99.90
2019-04-23T20:11:06.613Z,99.90
2019-04-23T20:13:47.182Z,99.90
2019-04-23T20:18:46.036Z,99.90
2019-04-23T20:24:02.968Z,99.90
2019-04-23T20:33:17.017Z,99.90
2019-04-23T20:39:09.099Z,99.90
2019-04-23T20:42:02.345Z,99.90
2019-04-23T20:44:33.571Z,99.90
2019-04-23T20:47:11.483Z,99.90
2019-04-23T20:57:24.959Z,99.90
2019-04-23T21:00:02.059Z,99.90
2019-04-23T21:02:39.070Z,99.90
2019-04-23T21:05:09.822Z,99.90
2019-04-23T21:07:31.591Z,99.90
2019-04-23T21:10:11.149Z,99.90
2019-04-23T21:12:45.859Z,99.90
2019-04-23T21:15:04.805Z,99.90
2019-04-23T21:17:38.432Z,99.90
2019-04-23T21:20:10.244Z,99.90
2019-04-23T21:24:56.602Z,99.90
2019-04-23T21:32:42.269Z,99.90
2019-04-23T21:35:07.752Z,99.90
2019-04-23T21:37:52.720Z,99.90
2019-04-23T21:43:08.899Z,99.90
2019-04-23T21:45:40.787Z,99.90
2019-04-23T21:48:09.666Z,99.90
2019-04-23T21:50:44.359Z,99.90
2019-04-23T21:53:06.820Z,99.90
2019-04-23T21:55:47.256Z,99.90
2019-04-23T22:00:54.985Z,99.90
2019-04-23T22:05:49.477Z,99.90
2019-04-23T22:08:35.150Z,99.90
2019-04-23T22:10:57.304Z,99.90
2019-04-23T22:13:34.954Z,99.90
2019-04-23T22:16:01.783Z,99.90
2019-04-23T22:18:22.023Z,99.90
2019-04-23T22:20:59.356Z,99.90
2019-04-23T22:23:33.829Z,99.90
2019-04-23T22:25:56.470Z,99.90
2019-04-23T22:28:26.990Z,99.90
2019-04-23T22:31:04.017Z,99.90
2019-04-23T22:33:27.225Z,99.90
2019-04-23T22:36:02.848Z,99.90
2019-04-23T22:40:58.162Z,99.90
2019-04-23T22:43:37.720Z,99.90
2019-04-23T22:46:16.322Z,99.90
2019-04-23T22:48:34.569Z,99.90
2019-04-23T22:51:11.016Z,99.90
2019-04-23T22:53:46.579Z,99.90
2019-04-23T22:58:42.623Z,99.90
2019-04-23T23:01:19.681Z,99.90
2019-04-23T23:03:51.584Z,99.90
2019-04-23T23:08:57.448Z,99.90
2019-04-23T23:11:14.106Z,99.90
2019-04-23T23:14:03.976Z,99.90
2019-04-23T23:16:16.424Z,99.90
2019-04-23T23:18:52.205Z,99.90
2019-04-23T23:23:46.348Z,99.90
2019-04-23T23:26:14.182Z,99.90
2019-04-23T23:28:44.634Z,99.90
2019-04-23T23:33:54.254Z,99.90
2019-04-23T23:36:20.240Z,99.90
2019-04-23T23:39:00.384Z,99.90
2019-04-23T23:43:54.631Z,99.90
2019-04-23T23:46:29.512Z,99.90
2019-04-23T23:48:57.089Z,99.90
2019-04-23T23:51:34.447Z,99.90
2019-04-23T23:53:57.153Z,99.90
